Airfield :
LOGIN :

Register | Disclaimer

   EN    FR    IT 

 










Legend :    VFR   Marginal VFR   IFR   Intensive IFR   Very Intensive IFR
Visi :
Ceiling :
>= 8 km
>= 3000ft
5 to 8 km
1000 to 3000 ft
1500m to 5 km
500 to 1000 ft
800 to 1500m
200 to 500 ft
< 800m
< 200 ft
Symbols :   Thunderstorms  Fog  Heavy snow  Heavy precipitations  Wind > 20 kt
SIGMETs :     Misc.  Thunderstorms  Icing  Turbulence  Mountain Waves  Volcanic Ashes






- Airport Elevation : -13 ft
- IATA code : LEY


EHLE - Lelystad

CURRENT METAR :
  • 250725Z AUTO VRB02KT 7000 OVC015 03/M00 Q1034 NOSIG

EXPIRED METARs :
  • 250655Z AUTO VRB02KT 8000 OVC015 03/M01 Q1034 NOSIG
  • 250625Z AUTO VRB01KT 9000 OVC015 03/M00 Q1034 NOSIG
  • 250555Z AUTO 00000KT 9999 OVC016 03/M00 Q1034 NOSIG
  • 250525Z AUTO VRB01KT 9999 OVC015 03/M01 Q1034
  • 250455Z AUTO VRB02KT 9999 OVC015 03/M01 Q1034

TAF TAF EHLE
Valid from the 25 at 06:00 until the 26 at 12:00 UTC


250453Z 2506/2612 09004KT 9999 OVC018
PROB40
TEMPO 2603/2606 BKN012



MET'MAP, your aeronautical weather chart ! - Copyright ORBIFLY December 2007 - Disclaimer

ORBIFLY MET'MAP TEAM :

Programming & Development : Alexandra Zaïnal
Original concept : Baudouin d'Aumeries
Technical & hardware support : Manuel Goepfert
Assistance : Marc-Olivier Méhu

Contact : metmap@orbifly.com




SOURCES & CREDITS :

   NOAA